Hauptseite
METAR-TAF:

METAR-TAF

Flughäfen :

Flughafen Brunei International

Brunei, Brunei

Breite: 04-56N, Länge: 114-56E, Höhe: 22 m

Beobachtung

Neuester Wetterbericht von vor 43 Minuten, um 07:30 UTC
Wind 8 kt aus West
Temperatur 33°C
Luftfeuchtigkeit 63%
Luftdruck 1006 hPa
Sichtweite: 9000 m
Leicht bewölkt in der Höhe von 1700 ft
Durchbrochene Bewölkung in der Höhe von 28000 ft

METAR: WBSB 180730Z 26008KT 9000 FEW017 BKN280 33/25 Q1006 NOSIG

Zeit: 16:13 (08:13 UTC)

Prognose

Neuester Wetterbericht von vor 3 Stunden und 13 Minuten, um 05:00 UTC
Gültige Prognose vom 18 um 06 UTC bis 19 um 12 UTC
Wind 8 kt aus West
Sichtweite: 8000 m
Leicht bewölkt in der Höhe von 1700 ft
Übergehend zu
vom 18 um 12 UTC bis 18 um 14 UTC
Wind 3 kt aus Süd/Südwest
Leicht bewölkt in der Höhe von 1600 ft

TAF: WBSB 180500Z 1806/1912 26008KT 8000 FEW017 BECMG 1812/1814 20003KT FEW016

Wetterbeobachtungen und Prognosen von mehr als 4000 Flughäfen (METAR und TAF Bericht).

Die verfügbaren Stationen werden durch gelbe und rote Markierungen auf der Karte dargestellt.

Führen Sie die Maus auf sie, um den Namen der Station zu sehen.

Darauf klicken, um die Beobachtung von Wetterbeobachtungen und Prognosen zu sehen.

Um die Karte zu ändern : klicken Sie auf den grünen Tasten mit einem schwarzen Kreuz Zum Vergrößern, auf den grünen Button mit einem Gedankenstrich zu verkleinern, oder auf die grünen Pfeile für benachbarte Karten.


METAR-TAF: